Simón Bolívar International Airport

Airport
ICAO code: 
SKSM
IATA Code: 
SMR
Summary
ICAO Region: 
CARSAM
Territory: 
Location: 
Santa Marta, Magdalena department
Serving: 
Santa Marta
Elevation: 
22 ft
Coordinates: 
Aerial View: 
11° 7' 1.79" N, 74° 13' 57.554" W
Metar
Observation
SKSM 291900Z 35008KT 9999 FEW020 34/24 Q1007 RMK A2976
Station
Santa Marta / Simon Bolivar
Date/Time
2021-11-29 19:00:00
Wind direction
350°
Wind speed
08 kts
Lowest cloud amount
few clouds
Temperature
34°C
Dew point
24°C
Humidity
56%
QNH
1007 hPa
Weather condition
n/a

The Simón Bolívar International Airport is known locally as Santa Marta Airport. The airport is located 14km south of Santa Marta, the capital of the Magdalena Department, 18km north of the municipality of Ciénaga in Colombia.

Climatology

Tropical savanna climate (Köppen climate classification Aw)

Runways

Designator Length Width Surface Rops
1/19 1700 30 ASP Yes/Yes
Airport map: 
Aerial View: 

SKYbrary Partners:

Safety knowledge contributed by: